Time;durP1;ratioP1;P1;durP2;ratioP2;P2;SDS_P1;SDS_P2;PMS_P1;PMS_P2;Temp;Humidity;BMP_temperature;BMP_pressure;BME280_temperature;BME280_humidity;BME280_pressure;Samples;Min_cycle;Max_cycle;Signal;HPM_P1;HPM_P2
2022/08/19 00:01:17;;;;;;;10.38;5.38;;;17.60;99.90;;;;;;5048579;28;20120;-84
2022/08/19 00:03:42;;;;;;;9.45;6.63;;;17.50;99.90;;;;;;5058922;28;20043;-84
2022/08/19 00:06:09;;;;;;;10.05;7.00;;;17.50;99.90;;;;;;5052806;28;20094;-84
2022/08/19 00:08:34;;;;;;;11.23;7.75;;;17.50;99.90;;;;;;5034195;28;20029;-84
2022/08/19 00:11:00;;;;;;;9.82;7.40;;;17.50;99.90;;;;;;5048715;28;20044;-84
2022/08/19 00:13:28;;;;;;;8.18;5.90;;;17.50;99.90;;;;;;5038812;28;20111;-84
2022/08/19 00:15:54;;;;;;;9.15;5.57;;;17.50;99.90;;;;;;5048803;28;20041;-84
2022/08/19 00:18:20;;;;;;;8.65;6.03;;;17.50;99.90;;;;;;5048521;28;20037;-84
2022/08/19 00:20:45;;;;;;;8.60;5.40;;;17.50;99.90;;;;;;5043203;28;20079;-84
2022/08/19 00:23:11;;;;;;;9.20;6.72;;;17.40;99.90;;;;;;5036065;28;20087;-84
2022/08/19 00:25:36;;;;;;;9.43;6.68;;;17.40;99.90;;;;;;5052878;28;20045;-84
2022/08/19 00:28:03;;;;;;;9.68;6.90;;;17.40;99.90;;;;;;5071877;28;20044;-84
2022/08/19 00:30:28;;;;;;;8.57;6.30;;;17.40;99.90;;;;;;5072741;28;20048;-84
2022/08/19 00:32:55;;;;;;;10.05;7.43;;;17.40;99.90;;;;;;5072251;28;20433;-84
2022/08/19 00:35:21;;;;;;;10.50;6.80;;;17.40;99.90;;;;;;5052409;28;20049;-84
2022/08/19 00:37:48;;;;;;;8.85;6.97;;;17.40;99.90;;;;;;5053422;28;20119;-84
2022/08/19 00:40:14;;;;;;;10.63;7.13;;;17.40;99.90;;;;;;5071955;28;20040;-84
2022/08/19 00:42:41;;;;;;;10.73;7.53;;;17.40;99.90;;;;;;5072145;28;20055;-84
2022/08/19 00:45:12;;;;;;;9.93;7.65;;;17.30;99.90;;;;;;5072261;28;20040;-84
2022/08/19 00:47:38;;;;;;;9.33;7.33;;;17.30;99.90;;;;;;5056419;28;20406;-84
2022/08/19 00:50:06;;;;;;;9.52;7.28;;;17.30;99.90;;;;;;5055482;28;20028;-84
2022/08/19 00:52:39;;;;;;;14.65;11.38;;;17.30;99.90;;;;;;5041822;28;20069;-84
2022/08/19 00:55:09;;;;;;;13.38;10.75;;;17.30;99.90;;;;;;5035504;28;20040;-84
2022/08/19 00:57:41;;;;;;;11.05;8.73;;;17.30;99.90;;;;;;5051155;28;20568;-83
2022/08/19 01:00:12;;;;;;;11.88;9.10;;;17.20;99.90;;;;;;5035696;28;20056;-84
2022/08/19 01:02:39;;;;;;;8.32;4.68;;;17.20;99.90;;;;;;5040510;28;20115;-84
2022/08/19 01:05:10;;;;;;;6.57;3.60;;;17.20;99.90;;;;;;5038142;28;20052;-84
2022/08/19 01:07:38;;;;;;;9.75;5.03;;;17.10;99.90;;;;;;5052518;28;20037;-84
2022/08/19 01:10:07;;;;;;;7.78;3.95;;;17.10;99.90;;;;;;5034958;28;20510;-84
2022/08/19 01:12:34;;;;;;;6.95;4.43;;;17.10;99.90;;;;;;5052278;28;20049;-84
2022/08/19 01:15:00;;;;;;;6.43;3.92;;;17.00;99.90;;;;;;5051813;28;20103;-83
2022/08/19 01:17:26;;;;;;;8.88;5.22;;;17.00;99.90;;;;;;5058762;28;20498;-84
2022/08/19 01:19:52;;;;;;;8.68;5.40;;;16.90;99.90;;;;;;5034865;28;20047;-84
2022/08/19 01:22:23;;;;;;;8.10;4.93;;;16.90;99.90;;;;;;5051271;28;20040;-84
2022/08/19 01:24:50;;;;;;;7.68;5.05;;;16.90;99.90;;;;;;5055433;28;20127;-84
2022/08/19 01:27:16;;;;;;;9.27;5.38;;;16.80;99.90;;;;;;5063862;28;20139;-84
2022/08/19 01:29:43;;;;;;;8.73;5.15;;;16.80;99.90;;;;;;5051546;28;20501;-84
2022/08/19 01:32:12;;;;;;;9.38;5.20;;;16.80;99.90;;;;;;5034066;28;20033;-84
2022/08/19 01:34:38;;;;;;;8.88;5.07;;;16.80;99.90;;;;;;5042602;28;20077;-84
2022/08/19 01:37:11;;;;;;;7.88;4.45;;;16.80;99.90;;;;;;5050630;28;20083;-83
2022/08/19 01:39:38;;;;;;;6.85;4.05;;;16.70;99.90;;;;;;5051708;28;20053;-84
2022/08/19 01:42:07;;;;;;;7.13;3.67;;;16.70;99.90;;;;;;5050231;28;20044;-84
2022/08/19 01:44:32;;;;;;;5.05;2.60;;;16.70;99.90;;;;;;5060088;28;20051;-84
2022/08/19 01:46:58;;;;;;;3.72;1.90;;;16.60;99.90;;;;;;5039527;28;20413;-84
2022/08/19 01:49:26;;;;;;;5.72;2.30;;;16.60;99.90;;;;;;5034833;28;20040;-84
2022/08/19 01:51:53;;;;;;;5.85;3.00;;;16.50;99.90;;;;;;5051136;28;20063;-84
2022/08/19 01:54:21;;;;;;;5.78;3.10;;;16.40;99.90;;;;;;5050537;28;20045;-84
2022/08/19 01:56:47;;;;;;;6.68;3.33;;;16.40;99.90;;;;;;5050497;28;20041;-83
2022/08/19 01:59:17;;;;;;;7.07;2.88;;;16.30;99.90;;;;;;5050280;28;20091;-83
2022/08/19 02:01:43;;;;;;;6.65;3.28;;;16.30;99.90;;;;;;5033860;28;20045;-83
2022/08/19 02:04:09;;;;;;;6.25;3.17;;;16.20;99.90;;;;;;5059983;28;20039;-83
2022/08/19 02:06:35;;;;;;;6.55;1.35;;;16.20;99.90;;;;;;5071293;28;20036;-83
2022/08/19 02:09:04;;;;;;;5.15;2.47;;;16.10;99.90;;;;;;5071708;28;20044;-83
2022/08/19 02:11:33;;;;;;;5.50;2.60;;;16.10;99.90;;;;;;5055257;28;20138;-83
2022/08/19 02:14:01;;;;;;;5.15;2.40;;;16.10;99.90;;;;;;5050833;28;20032;-83
2022/08/19 02:16:27;;;;;;;3.30;1.63;;;16.10;99.90;;;;;;5041183;28;20071;-84
2022/08/19 02:18:53;;;;;;;5.47;2.33;;;16.10;99.90;;;;;;5033846;28;20037;-83
2022/08/19 02:21:20;;;;;;;6.20;2.33;;;16.10;99.90;;;;;;5033574;28;20041;-83
2022/08/19 02:23:46;;;;;;;4.85;1.83;;;16.10;99.90;;;;;;5058027;28;20036;-83
2022/08/19 02:26:13;;;;;;;4.25;1.70;;;16.00;99.90;;;;;;5054182;28;20048;-84
2022/08/19 02:28:40;;;;;;;4.95;1.70;;;16.00;99.90;;;;;;5070496;28;20524;-84
2022/08/19 02:31:17;;;;;;;5.72;1.90;;;16.00;99.90;;;;;;5038727;28;20124;-83
2022/08/19 02:33:42;;;;;;;3.75;1.50;;;16.00;99.90;;;;;;5050433;28;20536;-83
2022/08/19 02:36:10;;;;;;;3.30;1.10;;;16.00;99.90;;;;;;5068119;28;20063;-84
2022/08/19 02:38:36;;;;;;;3.88;1.20;;;16.00;99.90;;;;;;5069559;28;20558;-83
2022/08/19 02:41:17;;;;;;;2.75;0.98;;;15.90;99.90;;;;;;5068990;28;20040;-83
2022/08/19 02:43:43;;;;;;;4.45;1.85;;;15.80;99.90;;;;;;5052959;28;20448;-84
2022/08/19 02:46:30;;;;;;;5.72;2.20;;;15.70;99.90;;;;;;5063335;28;20734;-83
2022/08/19 02:49:03;;;;;;;5.18;2.38;;;15.80;99.90;;;;;;5034042;28;20541;-83
2022/08/19 02:51:38;;;;;;;7.03;3.67;;;15.70;99.90;;;;;;5033107;28;20048;-83
2022/08/19 02:54:05;;;;;;;7.10;3.25;;;15.70;99.90;;;;;;5048527;28;20519;-83
2022/08/19 02:56:31;;;;;;;6.10;3.22;;;15.60;99.90;;;;;;5069185;28;20123;-84
2022/08/19 02:58:58;;;;;;;6.55;3.35;;;15.60;99.90;;;;;;5048818;28;20029;-84
2022/08/19 03:01:31;;;;;;;6.60;1.98;;;15.60;99.90;;;;;;5032852;28;20033;-84
2022/08/19 03:04:00;;;;;;;6.57;3.30;;;15.50;99.90;;;;;;5057377;28;20079;-84
2022/08/19 03:06:26;;;;;;;5.82;2.65;;;15.50;99.90;;;;;;5050544;28;20096;-83
2022/08/19 03:08:52;;;;;;;5.90;2.92;;;15.50;99.90;;;;;;5051705;28;20095;-83
2022/08/19 03:11:30;;;;;;;6.63;3.00;;;15.50;99.90;;;;;;5068982;28;20085;-83
2022/08/19 03:13:57;;;;;;;6.68;2.88;;;15.50;99.90;;;;;;5064119;28;20076;-83
2022/08/19 03:16:25;;;;;;;5.20;1.50;;;15.50;99.90;;;;;;5032250;28;20048;-84
2022/08/19 03:18:51;;;;;;;7.40;2.67;;;15.40;99.90;;;;;;5049223;28;20582;-84
2022/08/19 03:21:23;;;;;;;5.32;1.90;;;15.30;99.90;;;;;;5041385;28;20047;-84
2022/08/19 03:23:49;;;;;;;3.22;1.58;;;15.40;99.90;;;;;;5069619;28;20402;-83
2022/08/19 03:26:15;;;;;;;2.47;1.40;;;15.30;99.90;;;;;;5066672;28;20040;-83
2022/08/19 03:28:42;;;;;;;3.40;1.60;;;15.30;99.90;;;;;;5032333;28;20053;-84
2022/08/19 03:31:12;;;;;;;5.28;1.83;;;15.40;99.90;;;;;;5049294;28;20509;-83
2022/08/19 03:33:38;;;;;;;4.65;1.63;;;15.30;99.90;;;;;;5048778;28;20122;-83
2022/08/19 03:36:11;;;;;;;6.13;2.60;;;15.30;99.90;;;;;;5048748;28;20629;-83
2022/08/19 03:38:40;;;;;;;22.58;2.53;;;15.30;99.90;;;;;;5048615;28;20514;-84
2022/08/19 03:41:08;;;;;;;25.90;2.50;;;15.40;99.90;;;;;;5040333;28;20068;-84
2022/08/19 03:43:35;;;;;;;4.78;2.20;;;15.40;99.90;;;;;;5051947;28;20040;-83
2022/08/19 03:46:08;;;;;;;5.45;2.42;;;15.30;99.90;;;;;;5052278;28;20043;-84
2022/08/19 03:48:35;;;;;;;4.07;1.73;;;15.30;99.90;;;;;;5052753;28;20028;-83
2022/08/19 03:51:02;;;;;;;38.25;3.67;;;15.20;99.90;;;;;;5067410;28;20028;-83
2022/08/19 03:53:30;;;;;;;100.45;7.35;;;15.30;99.90;;;;;;5048794;28;20032;-84
2022/08/19 03:55:57;;;;;;;48.05;5.35;;;15.30;99.90;;;;;;5048032;28;20689;-82
2022/08/19 03:58:23;;;;;;;20.60;1.95;;;15.30;99.90;;;;;;5054228;28;20513;-84
2022/08/19 04:00:49;;;;;;;7.40;2.50;;;15.20;99.90;;;;;;5068764;28;20048;-84
2022/08/19 04:03:15;;;;;;;4.35;1.55;;;15.20;99.90;;;;;;5068579;28;20536;-83
2022/08/19 04:05:40;;;;;;;47.80;5.35;;;15.10;99.90;;;;;;5068543;28;20080;-84
2022/08/19 04:08:06;;;;;;;71.18;8.32;;;15.10;99.90;;;;;;5069703;28;20029;-83
2022/08/19 04:10:36;;;;;;;17.73;3.10;;;15.10;99.90;;;;;;5064977;28;20513;-83
2022/08/19 04:13:04;;;;;;;27.45;4.00;;;15.00;99.90;;;;;;5032191;28;20075;-84
2022/08/19 04:15:31;;;;;;;40.78;6.25;;;14.90;99.90;;;;;;5032192;28;20094;-83
2022/08/19 04:17:56;;;;;;;9.07;6.15;;;14.90;99.90;;;;;;5061726;28;20037;-84
2022/08/19 04:20:22;;;;;;;13.90;5.55;;;14.90;99.90;;;;;;5052365;28;20040;-84
2022/08/19 04:22:48;;;;;;;7.95;4.45;;;15.00;99.90;;;;;;5064765;28;20048;-83
2022/08/19 04:25:13;;;;;;;7.93;3.97;;;15.00;99.90;;;;;;5048529;28;20128;-83
2022/08/19 04:27:39;;;;;;;7.43;2.78;;;14.90;99.90;;;;;;5049617;28;20037;-84
2022/08/19 04:30:05;;;;;;;7.78;3.95;;;14.90;99.90;;;;;;5056990;28;20033;-83
2022/08/19 04:32:31;;;;;;;7.60;3.58;;;14.90;99.90;;;;;;5048378;28;20116;-84
2022/08/19 04:34:58;;;;;;;7.30;3.80;;;14.90;99.90;;;;;;5040435;28;20086;-84
2022/08/19 04:37:26;;;;;;;6.03;1.83;;;14.90;99.90;;;;;;5047491;28;20048;-83
2022/08/19 04:42:39;;;;;;;6.97;3.10;;;14.80;99.90;;;;;;5066959;28;20040;-83
2022/08/19 04:45:06;;;;;;;6.75;3.10;;;14.80;99.90;;;;;;5068690;28;20437;-83
2022/08/19 04:47:32;;;;;;;6.03;1.85;;;14.80;99.90;;;;;;5068504;28;20040;-84
2022/08/19 04:49:58;;;;;;;5.55;2.40;;;14.80;99.90;;;;;;5068694;28;20036;-83
2022/08/19 04:52:24;;;;;;;5.75;2.20;;;14.70;99.90;;;;;;5068283;28;20117;-83
2022/08/19 04:54:49;;;;;;;4.80;1.45;;;14.80;99.90;;;;;;5049749;28;20048;-84
2022/08/19 04:57:15;;;;;;;4.53;1.85;;;14.70;99.90;;;;;;5047487;28;20463;-84
2022/08/19 04:59:40;;;;;;;5.78;2.00;;;14.60;99.90;;;;;;5047182;28;20047;-83
2022/08/19 05:02:09;;;;;;;4.47;2.08;;;14.70;99.90;;;;;;5047279;28;20542;-83
2022/08/19 05:04:38;;;;;;;3.72;1.35;;;14.70;99.90;;;;;;5059084;28;20086;-83
2022/08/19 05:07:04;;;;;;;4.07;1.90;;;14.70;99.90;;;;;;5051890;28;20060;-83
2022/08/19 05:09:29;;;;;;;3.25;1.52;;;14.70;99.90;;;;;;5055135;28;20072;-83
2022/08/19 05:11:55;;;;;;;3.45;1.55;;;14.70;99.90;;;;;;5071701;28;20033;-83
2022/08/19 05:14:21;;;;;;;2.92;1.20;;;14.70;99.90;;;;;;5071771;28;20391;-83
2022/08/19 05:16:47;;;;;;;4.53;2.00;;;14.60;99.90;;;;;;5040488;28;20064;-83
2022/08/19 05:24:43;;;;;;;3.97;1.92;;;14.60;99.90;;;;;;5065192;28;20421;-84
2022/08/19 05:27:09;;;;;;;6.50;3.47;;;14.60;99.90;;;;;;5055467;28;20040;-84
2022/08/19 05:29:35;;;;;;;6.60;3.05;;;14.70;99.90;;;;;;5061575;28;20079;-83
2022/08/19 05:32:04;;;;;;;4.68;1.90;;;14.70;99.90;;;;;;5068264;28;20044;-83
2022/08/19 05:34:32;;;;;;;4.53;2.40;;;14.60;99.90;;;;;;5069058;28;20041;-83
2022/08/19 05:37:00;;;;;;;5.95;2.10;;;14.60;99.90;;;;;;5050723;28;20045;-83
2022/08/19 05:39:29;;;;;;;5.47;2.03;;;14.60;99.90;;;;;;5050328;28;20045;-83
2022/08/19 05:42:02;;;;;;;6.15;3.35;;;14.60;99.90;;;;;;5041423;28;20076;-83
2022/08/19 05:44:31;;;;;;;6.55;3.85;;;14.60;99.90;;;;;;5042813;28;20048;-83
2022/08/19 05:47:01;;;;;;;6.78;4.22;;;14.70;99.90;;;;;;5071096;28;20041;-83
2022/08/19 05:49:29;;;;;;;6.18;2.55;;;14.80;99.90;;;;;;5037270;28;20116;-83
2022/08/19 05:51:55;;;;;;;7.50;4.90;;;14.80;99.90;;;;;;5034483;28;20040;-83
2022/08/19 05:54:22;;;;;;;9.10;6.47;;;14.90;99.90;;;;;;5059091;28;20123;-83
2022/08/19 05:56:52;;;;;;;8.10;6.00;;;15.00;99.90;;;;;;5070374;28;20044;-83
2022/08/19 05:59:21;;;;;;;17.30;14.68;;;15.10;99.90;;;;;;5050809;28;20036;-83
2022/08/19 06:01:50;;;;;;;16.23;14.30;;;15.20;99.90;;;;;;5050312;28;20053;-83
2022/08/19 06:04:18;;;;;;;15.90;14.15;;;15.30;99.90;;;;;;5060618;28;20083;-83
2022/08/19 06:06:44;;;;;;;13.90;12.38;;;15.40;99.90;;;;;;5062245;28;20028;-83
2022/08/19 06:09:10;;;;;;;15.98;14.32;;;15.50;99.90;;;;;;5054247;28;20033;-83
2022/08/19 06:11:43;;;;;;;18.70;16.23;;;15.60;99.90;;;;;;5054211;28;20102;-84
2022/08/19 06:14:16;;;;;;;17.98;15.85;;;15.70;99.90;;;;;;5061854;28;20086;-84
2022/08/19 06:16:43;;;;;;;18.08;16.10;;;15.80;99.90;;;;;;5053865;28;20034;-84
2022/08/19 06:19:11;;;;;;;18.90;16.50;;;15.90;99.90;;;;;;5066117;28;20029;-84
2022/08/19 06:21:38;;;;;;;22.20;19.40;;;15.90;99.90;;;;;;5049904;28;20083;-84
2022/08/19 06:24:08;;;;;;;22.75;20.35;;;16.10;99.90;;;;;;5050496;28;20106;-84
2022/08/19 06:26:36;;;;;;;25.33;20.73;;;16.10;99.90;;;;;;5050090;28;20413;-84
2022/08/19 06:29:05;;;;;;;21.25;13.60;;;16.30;99.90;;;;;;5053980;28;20040;-84
2022/08/19 06:31:33;;;;;;;23.65;21.05;;;16.30;99.90;;;;;;5055122;28;20047;-84
2022/08/19 06:34:02;;;;;;;24.25;20.45;;;16.40;99.90;;;;;;5033829;28;20067;-84
2022/08/19 06:36:34;;;;;;;18.05;13.27;;;16.50;99.90;;;;;;5052642;28;20032;-85
2022/08/19 06:39:03;;;;;;;23.10;20.10;;;16.60;99.90;;;;;;5069098;28;20492;-84
2022/08/19 06:41:30;;;;;;;22.20;13.73;;;16.70;99.90;;;;;;5069911;28;20143;-84
2022/08/19 06:43:58;;;;;;;22.77;19.33;;;16.70;99.90;;;;;;5060924;28;20567;-84
2022/08/19 06:46:24;;;;;;;23.67;20.70;;;16.80;99.90;;;;;;5049940;28;20411;-84
2022/08/19 06:48:49;;;;;;;24.38;21.77;;;17.00;99.90;;;;;;5038534;28;20036;-84
2022/08/19 06:51:18;;;;;;;22.15;19.85;;;17.10;99.90;;;;;;5052385;28;20523;-85
2022/08/19 06:53:46;;;;;;;23.17;20.70;;;17.20;99.90;;;;;;5033143;28;20083;-85
2022/08/19 06:56:17;;;;;;;22.05;19.73;;;17.30;99.90;;;;;;5049141;28;20044;-84
2022/08/19 06:58:43;;;;;;;22.90;20.50;;;17.40;99.90;;;;;;5031627;28;20049;-85
2022/08/19 07:01:09;;;;;;;23.25;20.88;;;17.60;99.90;;;;;;5050766;28;20043;-84
2022/08/19 07:03:36;;;;;;;23.60;20.55;;;17.60;99.90;;;;;;5052481;28;20398;-85
2022/08/19 07:06:11;;;;;;;22.38;20.08;;;17.70;99.90;;;;;;5069681;28;20267;-85
2022/08/19 07:08:40;;;;;;;21.75;19.48;;;17.80;99.90;;;;;;5069764;28;20033;-85
2022/08/19 07:11:12;;;;;;;24.77;21.50;;;17.90;99.90;;;;;;5051352;28;20044;-85
2022/08/19 07:13:39;;;;;;;19.93;15.07;;;18.00;99.90;;;;;;5053739;28;20077;-85
2022/08/19 07:16:16;;;;;;;23.30;20.83;;;18.00;99.90;;;;;;5070146;28;20287;-85
2022/08/19 07:18:42;;;;;;;24.20;20.55;;;18.20;99.90;;;;;;5070310;28;20055;-85
2022/08/19 07:21:19;;;;;;;23.55;20.88;;;18.20;99.90;;;;;;5069515;28;20118;-85
2022/08/19 07:23:45;;;;;;;23.02;20.50;;;18.30;99.90;;;;;;5053091;28;20086;-84
2022/08/19 07:26:29;;;;;;;22.23;20.02;;;18.40;99.90;;;;;;5053476;28;20040;-85
2022/08/19 07:28:57;;;;;;;23.80;21.45;;;18.50;99.90;;;;;;5052976;28;20072;-85
2022/08/19 07:31:25;;;;;;;23.88;20.88;;;18.60;99.90;;;;;;5053596;28;20513;-85
2022/08/19 07:33:55;;;;;;;23.60;21.10;;;18.70;99.90;;;;;;5070383;28;20033;-85
2022/08/19 07:36:24;;;;;;;22.08;19.77;;;18.80;99.90;;;;;;5070419;28;20043;-85
2022/08/19 07:38:51;;;;;;;22.80;20.40;;;19.00;99.90;;;;;;5052915;28;20040;-85
2022/08/19 07:41:31;;;;;;;21.83;19.50;;;19.10;99.90;;;;;;5069586;28;20080;-85
2022/08/19 07:43:57;;;;;;;21.67;19.48;;;19.30;99.90;;;;;;5069949;28;20036;-85
2022/08/19 07:46:23;;;;;;;21.55;19.45;;;19.30;99.90;;;;;;5069969;28;20110;-84
2022/08/19 07:48:51;;;;;;;21.58;19.27;;;19.50;99.90;;;;;;5053247;28;20405;-85
2022/08/19 07:51:20;;;;;;;21.27;19.17;;;19.60;99.90;;;;;;5069348;28;20036;-85
2022/08/19 07:53:47;;;;;;;21.83;19.48;;;19.70;99.90;;;;;;5069963;28;20051;-85
2022/08/19 07:56:14;;;;;;;21.25;19.05;;;19.80;99.90;;;;;;5053081;28;20620;-85
2022/08/19 07:58:42;;;;;;;21.73;19.55;;;19.90;99.90;;;;;;5069919;28;20442;-85
2022/08/19 08:01:12;;;;;;;21.55;19.20;;;20.00;99.90;;;;;;5069372;28;20045;-84
2022/08/19 08:09:11;;;;;;;21.38;19.27;;;20.30;99.90;;;;;;5069658;28;20070;-85
2022/08/19 08:11:39;;;;;;;22.35;20.05;;;20.40;99.90;;;;;;5069252;28;20090;-85
2022/08/19 08:14:05;;;;;;;20.88;18.77;;;20.50;99.90;;;;;;5068859;28;20083;-85
2022/08/19 08:16:35;;;;;;;20.08;18.08;;;20.60;99.90;;;;;;5069200;28;20037;-85
2022/08/19 08:19:01;;;;;;;20.27;18.25;;;20.70;99.90;;;;;;5069730;28;20036;-85
2022/08/19 08:21:26;;;;;;;19.63;17.75;;;20.80;99.90;;;;;;5052980;28;20044;-85
2022/08/19 08:23:55;;;;;;;20.60;18.55;;;20.80;99.90;;;;;;5069603;28;20409;-85
2022/08/19 08:26:20;;;;;;;20.08;17.98;;;20.90;99.90;;;;;;5052901;28;20036;-86
2022/08/19 08:28:47;;;;;;;19.33;17.38;;;21.00;99.90;;;;;;5052690;28;20082;-85
2022/08/19 08:31:12;;;;;;;19.80;17.80;;;21.00;99.90;;;;;;5052497;28;20033;-85
2022/08/19 08:33:38;;;;;;;20.52;18.50;;;21.10;99.90;;;;;;5053217;28;20040;-85
2022/08/19 08:36:08;;;;;;;21.23;18.92;;;21.20;99.90;;;;;;5052792;28;20491;-85
2022/08/19 08:38:36;;;;;;;20.80;18.63;;;21.30;99.90;;;;;;5069524;28;20048;-85
2022/08/19 08:41:19;;;;;;;19.05;17.05;;;21.40;99.90;;;;;;5054477;28;20484;-85
2022/08/19 08:43:46;;;;;;;;;;;21.40;99.90;;;;;;5073094;28;20037;-85
2022/08/19 08:46:32;;;;;;;21.13;18.80;;;21.50;99.90;;;;;;5072836;28;19946;-85
2022/08/19 08:49:16;;;;;;;20.58;18.58;;;21.60;99.90;;;;;;5073216;28;20033;-85
2022/08/19 08:51:47;;;;;;;21.17;18.90;;;21.70;99.90;;;;;;5074054;28;20173;-85
2022/08/19 08:54:16;;;;;;;21.30;19.10;;;21.80;99.90;;;;;;5072973;28;20045;-85
2022/08/19 08:56:43;;;;;;;21.20;19.17;;;21.90;99.90;;;;;;5073217;28;20051;-85
2022/08/19 08:59:32;;;;;;;20.27;18.27;;;21.90;99.90;;;;;;5072773;28;20037;-85
2022/08/19 09:01:58;;;;;;;20.77;18.67;;;22.10;99.90;;;;;;5072404;28;20497;-85
2022/08/19 09:04:24;;;;;;;19.33;17.25;;;22.10;99.90;;;;;;5072752;28;20455;-85
2022/08/19 09:07:21;;;;;;;19.25;17.05;;;22.20;99.90;;;;;;5073137;28;20029;-85
2022/08/19 09:09:50;;;;;;;18.50;16.63;;;22.30;99.90;;;;;;5055951;28;20052;-85
2022/08/19 09:12:31;;;;;;;19.10;17.10;;;22.30;99.90;;;;;;5072330;28;20086;-85
2022/08/19 09:15:09;;;;;;;17.98;16.23;;;22.40;99.90;;;;;;5055492;28;20036;-85
2022/08/19 09:17:35;;;;;;;18.77;16.98;;;22.50;99.90;;;;;;5072764;28;20040;-84
2022/08/19 09:20:10;;;;;;;18.70;16.73;;;22.50;99.90;;;;;;5072886;28;20103;-85
2022/08/19 09:22:40;;;;;;;19.95;17.85;;;22.60;99.90;;;;;;5072367;28;20658;-85
2022/08/19 09:25:08;;;;;;;17.85;16.02;;;22.70;99.90;;;;;;5072427;28;20444;-85
2022/08/19 09:27:37;;;;;;;18.95;17.05;;;22.70;99.90;;;;;;5072438;28;20044;-85
2022/08/19 09:30:04;;;;;;;17.80;15.88;;;22.80;99.90;;;;;;5055615;28;20051;-85
2022/08/19 09:32:30;;;;;;;18.10;15.95;;;22.90;99.90;;;;;;5072136;28;20433;-85
2022/08/19 09:34:57;;;;;;;17.05;15.23;;;23.00;99.90;;;;;;5055767;28;20052;-85
2022/08/19 09:37:24;;;;;;;19.67;17.58;;;23.00;99.90;;;;;;5072655;28;20056;-85
2022/08/19 09:39:50;;;;;;;19.77;17.70;;;23.10;99.90;;;;;;5071930;28;20044;-85
2022/08/19 09:42:16;;;;;;;20.08;17.98;;;23.20;99.90;;;;;;5071681;28;20444;-85
2022/08/19 09:44:42;;;;;;;19.83;17.83;;;23.20;99.90;;;;;;5071455;28;20041;-85
2022/08/19 09:47:10;;;;;;;19.92;17.92;;;23.30;99.90;;;;;;5055478;28;20049;-85
2022/08/19 09:49:37;;;;;;;20.23;18.20;;;23.40;99.90;;;;;;5072277;28;20086;-85
2022/08/19 09:52:03;;;;;;;20.80;18.67;;;23.50;99.90;;;;;;5070570;28;20513;-85
2022/08/19 09:54:29;;;;;;;19.45;17.52;;;23.60;99.90;;;;;;5054968;28;20098;-85
2022/08/19 09:56:57;;;;;;;18.52;16.73;;;23.60;99.90;;;;;;5055335;28;20044;-86
2022/08/19 09:59:23;;;;;;;20.75;18.63;;;23.70;99.90;;;;;;5055102;28;20056;-85
2022/08/19 10:01:49;;;;;;;20.25;18.15;;;23.80;99.90;;;;;;5071573;28;20086;-85
2022/08/19 10:04:15;;;;;;;19.40;17.40;;;23.90;99.90;;;;;;5054308;28;20280;-85
2022/08/19 10:06:41;;;;;;;19.98;18.08;;;23.90;99.90;;;;;;5071495;28;20048;-85
2022/08/19 10:09:10;;;;;;;20.50;18.48;;;23.90;99.90;;;;;;5071856;28;20036;-85
2022/08/19 10:11:39;;;;;;;19.63;17.63;;;23.90;99.90;;;;;;5054499;28;20040;-84
2022/08/19 10:14:08;;;;;;;18.65;16.75;;;24.00;99.90;;;;;;5071393;28;20029;-85
2022/08/19 10:16:36;;;;;;;17.42;15.60;;;24.10;99.90;;;;;;5071707;28;20040;-85
2022/08/19 10:19:02;;;;;;;17.25;15.43;;;24.10;99.90;;;;;;5071436;28;20055;-85
2022/08/19 10:21:30;;;;;;;17.10;15.30;;;24.20;99.90;;;;;;5054311;28;20399;-85
2022/08/19 10:23:59;;;;;;;16.60;14.90;;;24.30;99.90;;;;;;5071629;28;20176;-84
2022/08/19 10:26:28;;;;;;;15.23;13.73;;;24.40;99.90;;;;;;5071453;28;20398;-85
2022/08/19 10:28:54;;;;;;;15.30;13.55;;;24.40;99.90;;;;;;5071423;28;20090;-85
2022/08/19 10:31:23;;;;;;;16.35;14.65;;;24.30;99.90;;;;;;5070896;28;20043;-85
2022/08/19 10:33:49;;;;;;;14.65;12.48;;;24.40;99.90;;;;;;5070671;28;20116;-85
2022/08/19 10:36:18;;;;;;;15.63;13.98;;;24.40;99.90;;;;;;5072749;28;20444;-85
2022/08/19 10:38:46;;;;;;;16.38;13.20;;;24.50;99.90;;;;;;5070735;28;20374;-85
2022/08/19 10:41:22;;;;;;;17.15;14.30;;;24.60;99.90;;;;;;5070864;28;20036;-85
2022/08/19 10:43:50;;;;;;;14.93;13.18;;;24.70;99.90;;;;;;5070843;28;20040;-85
2022/08/19 10:46:16;;;;;;;16.42;13.50;;;24.80;99.90;;;;;;5070844;28;20501;-85
2022/08/19 10:48:43;;;;;;;13.27;11.88;;;24.90;99.90;;;;;;5070603;28;20041;-85
2022/08/19 10:53:55;;;;;;;13.05;11.38;;;25.10;99.90;;;;;;5056672;28;20049;-85
2022/08/19 10:59:05;;;;;;;13.43;10.52;;;25.20;99.90;;;;;;5053233;28;20053;-85
2022/08/19 11:01:33;;;;;;;11.70;9.90;;;25.30;99.90;;;;;;5033773;28;20040;-85
2022/08/19 11:04:01;;;;;;;12.75;10.82;;;25.40;99.90;;;;;;5049693;28;20083;-85
2022/08/19 11:06:26;;;;;;;14.65;11.38;;;25.40;99.90;;;;;;5050638;28;20061;-85
2022/08/19 11:08:54;;;;;;;14.30;11.70;;;25.30;99.90;;;;;;5065282;28;20044;-85
2022/08/19 11:11:21;;;;;;;13.30;11.90;;;25.30;99.90;;;;;;5071372;28;20047;-85
2022/08/19 11:13:47;;;;;;;15.82;13.90;;;25.30;99.90;;;;;;5053554;28;20055;-85
2022/08/19 11:16:17;;;;;;;16.48;14.75;;;25.20;99.90;;;;;;5070378;28;20041;-85
2022/08/19 11:18:46;;;;;;;14.88;13.27;;;25.20;99.90;;;;;;5053716;28;20037;-85
2022/08/19 11:21:25;;;;;;;14.60;12.75;;;25.20;99.90;;;;;;5053192;28;20091;-85
2022/08/19 11:23:55;;;;;;;13.85;12.27;;;25.30;99.90;;;;;;5069513;28;20127;-85
2022/08/19 11:26:22;;;;;;;11.63;10.15;;;25.30;99.90;;;;;;5071579;28;20040;-85
2022/08/19 11:28:51;;;;;;;12.75;9.50;;;25.30;99.90;;;;;;5070005;28;20520;-85
2022/08/19 11:31:19;;;;;;;13.45;10.13;;;25.30;99.90;;;;;;5053074;28;20036;-85
2022/08/19 11:33:46;;;;;;;10.52;9.23;;;25.50;99.90;;;;;;5052986;28;20044;-85
2022/08/19 11:36:12;;;;;;;13.98;10.10;;;25.60;98.50;;;;;;5052906;28;20054;-85
2022/08/19 11:38:38;;;;;;;12.98;11.40;;;25.70;99.90;;;;;;5053149;28;20094;-85
2022/08/19 11:41:07;;;;;;;13.10;11.25;;;25.90;99.70;;;;;;5069656;28;20436;-85
2022/08/19 11:43:33;;;;;;;14.00;10.55;;;26.10;99.90;;;;;;5053376;28;20044;-85
2022/08/19 11:46:03;;;;;;;15.13;11.32;;;26.20;99.90;;;;;;5070102;28;20037;-85
2022/08/19 11:48:28;;;;;;;13.63;10.35;;;26.30;99.90;;;;;;5053033;28;20045;-85
2022/08/19 11:50:56;;;;;;;11.70;9.57;;;26.30;99.90;;;;;;5052463;28;20036;-85
2022/08/19 11:53:22;;;;;;;11.27;8.82;;;26.30;99.90;;;;;;5069826;28;20047;-85
2022/08/19 11:55:48;;;;;;;13.52;10.18;;;26.60;99.90;;;;;;5070141;28;20040;-85
2022/08/19 11:58:16;;;;;;;11.98;9.90;;;26.80;99.90;;;;;;5053190;28;20525;-86
2022/08/19 12:00:44;;;;;;;12.88;10.30;;;26.60;98.70;;;;;;5052989;28;20559;-85
2022/08/19 12:03:11;;;;;;;16.63;10.15;;;26.60;97.80;;;;;;5069751;28;20174;-85
2022/08/19 12:05:38;;;;;;;17.45;9.25;;;26.40;97.80;;;;;;5069379;28;20052;-85
2022/08/19 12:08:04;;;;;;;12.18;10.43;;;26.40;99.00;;;;;;5052993;28;20490;-85
2022/08/19 12:10:30;;;;;;;12.38;10.35;;;26.40;99.60;;;;;;5053056;28;20051;-85
2022/08/19 12:12:55;;;;;;;13.95;10.80;;;26.40;99.30;;;;;;5069866;28;20118;-85
2022/08/19 12:15:21;;;;;;;12.20;9.73;;;26.50;99.90;;;;;;5053757;28;20047;-85
2022/08/19 12:17:47;;;;;;;14.27;10.65;;;26.70;98.60;;;;;;5057005;28;20040;-85
2022/08/19 12:20:15;;;;;;;12.07;9.38;;;26.70;96.30;;;;;;5073179;28;20383;-85
2022/08/19 12:22:41;;;;;;;12.07;9.90;;;26.80;95.10;;;;;;5073490;28;20059;-85
2022/08/19 12:25:09;;;;;;;10.75;9.32;;;26.90;96.60;;;;;;5073577;28;20066;-85
2022/08/19 12:27:35;;;;;;;10.93;8.18;;;27.10;94.40;;;;;;5057393;28;20045;-85
2022/08/19 12:30:02;;;;;;;9.63;7.38;;;27.10;90.60;;;;;;5057011;28;20432;-85
2022/08/19 12:32:28;;;;;;;20.55;6.97;;;27.20;88.80;;;;;;5056474;28;20182;-85
2022/08/19 12:34:54;;;;;;;10.15;7.25;;;27.40;90.30;;;;;;5073278;28;20577;-85
2022/08/19 12:37:20;;;;;;;10.52;6.30;;;27.50;82.00;;;;;;5057117;28;20044;-85
2022/08/19 12:39:46;;;;;;;12.77;8.07;;;27.70;93.10;;;;;;5056717;28;20494;-85
2022/08/19 12:42:13;;;;;;;13.02;9.25;;;27.80;89.60;;;;;;5074794;28;20075;-85
2022/08/19 12:44:40;;;;;;;11.40;9.13;;;27.80;88.90;;;;;;5072759;28;20593;-85
2022/08/19 12:47:07;;;;;;;13.07;10.00;;;27.80;86.50;;;;;;5053420;28;20044;-85
2022/08/19 12:49:34;;;;;;;12.18;8.30;;;27.60;87.70;;;;;;5052762;28;20060;-85
2022/08/19 12:52:00;;;;;;;12.63;8.80;;;27.60;91.70;;;;;;5054107;28;20047;-85
2022/08/19 12:54:27;;;;;;;11.02;8.35;;;27.90;91.30;;;;;;5036059;28;20037;-85
2022/08/19 12:56:53;;;;;;;10.02;6.38;;;28.10;93.10;;;;;;5053257;28;20676;-85
2022/08/19 12:59:19;;;;;;;9.57;6.53;;;28.30;80.30;;;;;;5035853;28;20402;-85